sensor_id;sensor_type;location;lat;lon;timestamp;temperature;humidity
31311;DHT22;17937;51.508;7.534;2022-11-20T00:00:43;-1.40;99.90
31311;DHT22;17937;51.508;7.534;2022-11-20T00:03:09;-1.40;99.90
31311;DHT22;17937;51.508;7.534;2022-11-20T00:05:34;-1.50;99.90
31311;DHT22;17937;51.508;7.534;2022-11-20T00:08:00;-1.50;99.90
31311;DHT22;17937;51.508;7.534;2022-11-20T00:10:26;-1.40;99.90
31311;DHT22;17937;51.508;7.534;2022-11-20T00:12:52;-1.40;99.90
31311;DHT22;17937;51.508;7.534;2022-11-20T00:15:17;-1.40;99.90
31311;DHT22;17937;51.508;7.534;2022-11-20T00:17:43;-1.30;99.90
31311;DHT22;17937;51.508;7.534;2022-11-20T00:20:09;-1.30;99.90
31311;DHT22;17937;51.508;7.534;2022-11-20T00:22:35;-1.30;99.90
31311;DHT22;17937;51.508;7.534;2022-11-20T00:25:00;-1.20;99.90
31311;DHT22;17937;51.508;7.534;2022-11-20T00:27:26;-1.20;99.90
31311;DHT22;17937;51.508;7.534;2022-11-20T00:29:51;-1.00;99.90
31311;DHT22;17937;51.508;7.534;2022-11-20T00:32:17;-1.00;99.90
31311;DHT22;17937;51.508;7.534;2022-11-20T00:34:42;-0.90;99.90
31311;DHT22;17937;51.508;7.534;2022-11-20T00:37:08;-0.90;99.90
31311;DHT22;17937;51.508;7.534;2022-11-20T00:39:33;-0.90;99.90
31311;DHT22;17937;51.508;7.534;2022-11-20T00:41:59;-0.80;99.90
31311;DHT22;17937;51.508;7.534;2022-11-20T00:44:24;-0.70;99.90
31311;DHT22;17937;51.508;7.534;2022-11-20T00:46:50;-0.70;99.90
31311;DHT22;17937;51.508;7.534;2022-11-20T00:49:16;-0.70;99.90
31311;DHT22;17937;51.508;7.534;2022-11-20T00:51:41;-0.70;99.90
31311;DHT22;17937;51.508;7.534;2022-11-20T00:54:07;-0.70;99.90
31311;DHT22;17937;51.508;7.534;2022-11-20T00:56:32;-0.60;99.90
31311;DHT22;17937;51.508;7.534;2022-11-20T00:59:00;-0.50;99.90
31311;DHT22;17937;51.508;7.534;2022-11-20T01:01:26;-0.50;99.90
31311;DHT22;17937;51.508;7.534;2022-11-20T01:03:56;-0.50;99.90
31311;DHT22;17937;51.508;7.534;2022-11-20T01:06:23;-0.50;99.90
31311;DHT22;17937;51.508;7.534;2022-11-20T01:08:50;-0.50;99.90
31311;DHT22;17937;51.508;7.534;2022-11-20T01:11:21;-0.50;99.90
31311;DHT22;17937;51.508;7.534;2022-11-20T01:13:48;-0.40;99.90
31311;DHT22;17937;51.508;7.534;2022-11-20T01:16:24;-0.40;99.90
31311;DHT22;17937;51.508;7.534;2022-11-20T01:18:52;-0.40;99.90
31311;DHT22;17937;51.508;7.534;2022-11-20T01:21:21;-0.30;99.90
31311;DHT22;17937;51.508;7.534;2022-11-20T01:23:48;-0.30;99.90
31311;DHT22;17937;51.508;7.534;2022-11-20T01:26:16;-0.30;99.90
31311;DHT22;17937;51.508;7.534;2022-11-20T01:28:43;-0.30;99.90
31311;DHT22;17937;51.508;7.534;2022-11-20T01:31:15;-0.30;99.90
31311;DHT22;17937;51.508;7.534;2022-11-20T01:33:41;-0.30;99.90
31311;DHT22;17937;51.508;7.534;2022-11-20T01:36:08;-0.30;99.90
31311;DHT22;17937;51.508;7.534;2022-11-20T01:38:34;-0.20;99.90
31311;DHT22;17937;51.508;7.534;2022-11-20T01:40:59;-0.20;99.90
31311;DHT22;17937;51.508;7.534;2022-11-20T01:43:25;-0.20;99.90
31311;DHT22;17937;51.508;7.534;2022-11-20T01:46:21;-0.20;99.90
31311;DHT22;17937;51.508;7.534;2022-11-20T01:51:45;-0.10;99.90
31311;DHT22;17937;51.508;7.534;2022-11-20T01:54:19;-0.10;99.90
31311;DHT22;17937;51.508;7.534;2022-11-20T01:56:48;-0.20;99.90
31311;DHT22;17937;51.508;7.534;2022-11-20T01:59:18;-0.10;99.90
31311;DHT22;17937;51.508;7.534;2022-11-20T02:01:44;-0.10;99.90
31311;DHT22;17937;51.508;7.534;2022-11-20T02:04:11;-0.10;99.90
31311;DHT22;17937;51.508;7.534;2022-11-20T02:06:46;0.00;99.90
31311;DHT22;17937;51.508;7.534;2022-11-20T02:09:13;0.00;99.90
31311;DHT22;17937;51.508;7.534;2022-11-20T02:11:39;0.00;99.90
31311;DHT22;17937;51.508;7.534;2022-11-20T02:14:05;0.00;99.90
31311;DHT22;17937;51.508;7.534;2022-11-20T02:16:34;0.10;99.90
31311;DHT22;17937;51.508;7.534;2022-11-20T02:19:02;0.10;99.90
31311;DHT22;17937;51.508;7.534;2022-11-20T02:21:37;0.10;99.90
31311;DHT22;17937;51.508;7.534;2022-11-20T02:24:17;0.10;99.90
31311;DHT22;17937;51.508;7.534;2022-11-20T02:26:53;0.20;99.90
31311;DHT22;17937;51.508;7.534;2022-11-20T02:29:26;0.30;99.90
31311;DHT22;17937;51.508;7.534;2022-11-20T02:31:54;0.40;99.90
31311;DHT22;17937;51.508;7.534;2022-11-20T02:34:20;0.40;99.90
31311;DHT22;17937;51.508;7.534;2022-11-20T02:36:46;0.40;99.90
31311;DHT22;17937;51.508;7.534;2022-11-20T02:39:14;0.50;99.90
31311;DHT22;17937;51.508;7.534;2022-11-20T02:41:42;0.50;99.90
31311;DHT22;17937;51.508;7.534;2022-11-20T02:44:08;0.50;99.90
31311;DHT22;17937;51.508;7.534;2022-11-20T02:46:33;0.40;99.90
31311;DHT22;17937;51.508;7.534;2022-11-20T02:49:02;0.50;99.90
31311;DHT22;17937;51.508;7.534;2022-11-20T02:51:28;0.40;99.90
31311;DHT22;17937;51.508;7.534;2022-11-20T02:53:53;0.40;99.90
31311;DHT22;17937;51.508;7.534;2022-11-20T02:56:19;0.50;99.90
31311;DHT22;17937;51.508;7.534;2022-11-20T02:58:45;0.50;99.90
31311;DHT22;17937;51.508;7.534;2022-11-20T03:01:10;0.50;99.90
31311;DHT22;17937;51.508;7.534;2022-11-20T03:03:36;0.50;99.90
31311;DHT22;17937;51.508;7.534;2022-11-20T03:06:01;0.50;99.90
31311;DHT22;17937;51.508;7.534;2022-11-20T03:08:27;0.50;99.90
31311;DHT22;17937;51.508;7.534;2022-11-20T03:10:53;0.60;99.90
31311;DHT22;17937;51.508;7.534;2022-11-20T03:13:19;0.50;99.90
31311;DHT22;17937;51.508;7.534;2022-11-20T03:15:44;0.50;99.90
31311;DHT22;17937;51.508;7.534;2022-11-20T03:18:10;0.50;99.90
31311;DHT22;17937;51.508;7.534;2022-11-20T03:20:35;0.60;99.90
31311;DHT22;17937;51.508;7.534;2022-11-20T03:23:01;0.60;99.90
31311;DHT22;17937;51.508;7.534;2022-11-20T03:25:27;0.60;99.90
31311;DHT22;17937;51.508;7.534;2022-11-20T03:27:54;0.60;99.90
31311;DHT22;17937;51.508;7.534;2022-11-20T03:30:19;0.60;99.90
31311;DHT22;17937;51.508;7.534;2022-11-20T03:32:45;0.60;99.90
31311;DHT22;17937;51.508;7.534;2022-11-20T03:35:11;0.60;99.90
31311;DHT22;17937;51.508;7.534;2022-11-20T03:37:36;0.70;99.90
31311;DHT22;17937;51.508;7.534;2022-11-20T03:40:03;0.70;99.90
31311;DHT22;17937;51.508;7.534;2022-11-20T03:42:28;0.80;99.90
31311;DHT22;17937;51.508;7.534;2022-11-20T03:45:21;0.80;99.90
31311;DHT22;17937;51.508;7.534;2022-11-20T03:47:46;0.80;99.90
31311;DHT22;17937;51.508;7.534;2022-11-20T03:50:13;0.80;99.90
31311;DHT22;17937;51.508;7.534;2022-11-20T03:52:39;0.90;99.90
31311;DHT22;17937;51.508;7.534;2022-11-20T03:55:06;0.90;99.90
31311;DHT22;17937;51.508;7.534;2022-11-20T03:57:32;0.90;99.90
31311;DHT22;17937;51.508;7.534;2022-11-20T03:59:57;0.90;99.90
31311;DHT22;17937;51.508;7.534;2022-11-20T04:02:23;0.90;99.90
31311;DHT22;17937;51.508;7.534;2022-11-20T04:04:48;0.90;99.90
31311;DHT22;17937;51.508;7.534;2022-11-20T04:07:14;0.90;99.90
31311;DHT22;17937;51.508;7.534;2022-11-20T04:09:39;0.90;99.90
31311;DHT22;17937;51.508;7.534;2022-11-20T04:12:05;0.90;99.90
31311;DHT22;17937;51.508;7.534;2022-11-20T04:14:31;0.90;99.90
31311;DHT22;17937;51.508;7.534;2022-11-20T04:16:57;0.90;99.90
31311;DHT22;17937;51.508;7.534;2022-11-20T04:19:22;0.80;99.90
31311;DHT22;17937;51.508;7.534;2022-11-20T04:21:48;0.80;99.90
31311;DHT22;17937;51.508;7.534;2022-11-20T04:24:13;0.80;99.90
31311;DHT22;17937;51.508;7.534;2022-11-20T04:26:39;0.80;99.90
31311;DHT22;17937;51.508;7.534;2022-11-20T04:29:05;0.80;99.90
31311;DHT22;17937;51.508;7.534;2022-11-20T04:31:32;0.80;99.90
31311;DHT22;17937;51.508;7.534;2022-11-20T04:34:03;0.80;99.90
31311;DHT22;17937;51.508;7.534;2022-11-20T04:36:30;0.80;99.90
31311;DHT22;17937;51.508;7.534;2022-11-20T04:39:00;0.80;99.90
31311;DHT22;17937;51.508;7.534;2022-11-20T04:41:34;0.80;99.90
31311;DHT22;17937;51.508;7.534;2022-11-20T04:44:02;0.90;99.90
31311;DHT22;17937;51.508;7.534;2022-11-20T04:46:33;1.00;99.90
31311;DHT22;17937;51.508;7.534;2022-11-20T04:48:59;1.00;99.90
31311;DHT22;17937;51.508;7.534;2022-11-20T04:51:25;1.10;99.90
31311;DHT22;17937;51.508;7.534;2022-11-20T04:53:51;1.10;99.90
31311;DHT22;17937;51.508;7.534;2022-11-20T04:56:17;1.20;99.90
31311;DHT22;17937;51.508;7.534;2022-11-20T04:58:42;1.20;99.90
31311;DHT22;17937;51.508;7.534;2022-11-20T05:01:14;1.20;99.90
31311;DHT22;17937;51.508;7.534;2022-11-20T05:03:41;1.20;99.90
31311;DHT22;17937;51.508;7.534;2022-11-20T05:06:07;1.20;99.90
31311;DHT22;17937;51.508;7.534;2022-11-20T05:08:33;1.20;99.90
31311;DHT22;17937;51.508;7.534;2022-11-20T05:11:08;1.20;99.90
31311;DHT22;17937;51.508;7.534;2022-11-20T05:13:34;1.30;99.90
31311;DHT22;17937;51.508;7.534;2022-11-20T05:16:08;1.30;99.90
31311;DHT22;17937;51.508;7.534;2022-11-20T05:18:35;1.30;99.90
31311;DHT22;17937;51.508;7.534;2022-11-20T05:21:01;1.30;99.90
31311;DHT22;17937;51.508;7.534;2022-11-20T05:23:27;1.30;99.90
31311;DHT22;17937;51.508;7.534;2022-11-20T05:25:54;1.40;99.90
31311;DHT22;17937;51.508;7.534;2022-11-20T05:28:20;1.40;99.90
31311;DHT22;17937;51.508;7.534;2022-11-20T05:30:46;1.40;99.90
31311;DHT22;17937;51.508;7.534;2022-11-20T05:33:11;1.40;99.90
31311;DHT22;17937;51.508;7.534;2022-11-20T05:35:37;1.50;99.90
31311;DHT22;17937;51.508;7.534;2022-11-20T05:38:02;1.40;99.90
31311;DHT22;17937;51.508;7.534;2022-11-20T05:40:28;1.40;99.90
31311;DHT22;17937;51.508;7.534;2022-11-20T05:42:53;1.40;99.90
31311;DHT22;17937;51.508;7.534;2022-11-20T05:45:19;1.40;99.90
31311;DHT22;17937;51.508;7.534;2022-11-20T05:47:44;1.40;99.90
31311;DHT22;17937;51.508;7.534;2022-11-20T05:50:10;1.40;99.90
31311;DHT22;17937;51.508;7.534;2022-11-20T05:52:35;1.40;99.90
31311;DHT22;17937;51.508;7.534;2022-11-20T05:55:01;1.40;99.90
31311;DHT22;17937;51.508;7.534;2022-11-20T05:57:27;1.30;99.90
31311;DHT22;17937;51.508;7.534;2022-11-20T05:59:52;1.20;99.90
31311;DHT22;17937;51.508;7.534;2022-11-20T06:02:18;1.20;99.90
31311;DHT22;17937;51.508;7.534;2022-11-20T06:04:43;1.20;99.90
31311;DHT22;17937;51.508;7.534;2022-11-20T06:07:09;1.10;99.90
31311;DHT22;17937;51.508;7.534;2022-11-20T06:09:34;1.20;99.90
31311;DHT22;17937;51.508;7.534;2022-11-20T06:12:00;1.10;99.90
31311;DHT22;17937;51.508;7.534;2022-11-20T06:14:26;1.10;99.90
31311;DHT22;17937;51.508;7.534;2022-11-20T06:16:51;1.00;99.90
31311;DHT22;17937;51.508;7.534;2022-11-20T06:19:17;0.90;99.90
31311;DHT22;17937;51.508;7.534;2022-11-20T06:21:42;0.80;99.90
31311;DHT22;17937;51.508;7.534;2022-11-20T06:24:11;0.70;99.90
31311;DHT22;17937;51.508;7.534;2022-11-20T06:26:37;0.70;99.90
31311;DHT22;17937;51.508;7.534;2022-11-20T06:29:02;0.80;99.90
31311;DHT22;17937;51.508;7.534;2022-11-20T06:31:28;0.80;99.90
31311;DHT22;17937;51.508;7.534;2022-11-20T06:33:54;0.80;99.90
31311;DHT22;17937;51.508;7.534;2022-11-20T06:36:21;0.70;99.90
31311;DHT22;17937;51.508;7.534;2022-11-20T06:38:47;0.60;99.90
31311;DHT22;17937;51.508;7.534;2022-11-20T06:41:16;0.70;99.90
31311;DHT22;17937;51.508;7.534;2022-11-20T06:43:42;0.70;99.90
31311;DHT22;17937;51.508;7.534;2022-11-20T06:46:09;0.60;99.90
31311;DHT22;17937;51.508;7.534;2022-11-20T06:48:35;0.60;99.90
31311;DHT22;17937;51.508;7.534;2022-11-20T06:51:03;0.60;99.90
31311;DHT22;17937;51.508;7.534;2022-11-20T06:53:29;0.60;99.90
31311;DHT22;17937;51.508;7.534;2022-11-20T06:55:56;0.50;99.90
31311;DHT22;17937;51.508;7.534;2022-11-20T06:58:23;0.50;99.90
31311;DHT22;17937;51.508;7.534;2022-11-20T07:00:49;0.40;99.90
31311;DHT22;17937;51.508;7.534;2022-11-20T07:03:14;0.30;99.90
31311;DHT22;17937;51.508;7.534;2022-11-20T07:05:40;0.30;99.90
31311;DHT22;17937;51.508;7.534;2022-11-20T07:08:06;0.20;99.90
31311;DHT22;17937;51.508;7.534;2022-11-20T07:10:32;0.20;99.90
31311;DHT22;17937;51.508;7.534;2022-11-20T07:12:58;0.20;99.90
31311;DHT22;17937;51.508;7.534;2022-11-20T07:15:24;0.20;99.90
31311;DHT22;17937;51.508;7.534;2022-11-20T07:17:50;0.20;99.90
31311;DHT22;17937;51.508;7.534;2022-11-20T07:20:16;0.20;99.90
31311;DHT22;17937;51.508;7.534;2022-11-20T07:22:42;0.20;99.90
31311;DHT22;17937;51.508;7.534;2022-11-20T07:25:08;0.10;99.90
31311;DHT22;17937;51.508;7.534;2022-11-20T07:27:34;0.10;99.90
31311;DHT22;17937;51.508;7.534;2022-11-20T07:30:00;0.10;99.90
31311;DHT22;17937;51.508;7.534;2022-11-20T07:32:26;0.10;99.90
31311;DHT22;17937;51.508;7.534;2022-11-20T07:34:51;0.10;99.90
31311;DHT22;17937;51.508;7.534;2022-11-20T07:37:17;0.10;99.90
31311;DHT22;17937;51.508;7.534;2022-11-20T07:39:43;0.10;99.90
31311;DHT22;17937;51.508;7.534;2022-11-20T07:42:09;0.20;99.90
31311;DHT22;17937;51.508;7.534;2022-11-20T07:44:35;0.40;99.90
31311;DHT22;17937;51.508;7.534;2022-11-20T07:47:01;0.30;99.90
31311;DHT22;17937;51.508;7.534;2022-11-20T07:49:27;0.40;99.90
31311;DHT22;17937;51.508;7.534;2022-11-20T07:51:53;0.50;99.90
31311;DHT22;17937;51.508;7.534;2022-11-20T07:54:19;0.60;99.90
31311;DHT22;17937;51.508;7.534;2022-11-20T07:56:45;0.60;99.90
31311;DHT22;17937;51.508;7.534;2022-11-20T07:59:11;0.70;99.90
31311;DHT22;17937;51.508;7.534;2022-11-20T08:01:38;0.70;99.90
31311;DHT22;17937;51.508;7.534;2022-11-20T08:04:03;0.80;99.90
31311;DHT22;17937;51.508;7.534;2022-11-20T08:06:29;0.90;99.90
31311;DHT22;17937;51.508;7.534;2022-11-20T08:08:54;1.00;99.90
31311;DHT22;17937;51.508;7.534;2022-11-20T08:11:20;1.40;99.90
31311;DHT22;17937;51.508;7.534;2022-11-20T08:14:04;2.10;99.90
31311;DHT22;17937;51.508;7.534;2022-11-20T08:16:45;2.80;99.90
31311;DHT22;17937;51.508;7.534;2022-11-20T08:19:12;4.00;99.90
31311;DHT22;17937;51.508;7.534;2022-11-20T08:21:38;5.10;99.90
31311;DHT22;17937;51.508;7.534;2022-11-20T08:24:04;5.70;99.90
31311;DHT22;17937;51.508;7.534;2022-11-20T08:26:30;6.40;99.90
31311;DHT22;17937;51.508;7.534;2022-11-20T08:28:56;6.90;99.90
31311;DHT22;17937;51.508;7.534;2022-11-20T08:31:24;7.60;99.90
31311;DHT22;17937;51.508;7.534;2022-11-20T08:33:50;8.30;99.90
31311;DHT22;17937;51.508;7.534;2022-11-20T08:36:16;8.50;99.90
31311;DHT22;17937;51.508;7.534;2022-11-20T08:38:46;8.60;99.90
31311;DHT22;17937;51.508;7.534;2022-11-20T08:41:11;8.70;99.90
31311;DHT22;17937;51.508;7.534;2022-11-20T08:43:50;8.80;99.90
31311;DHT22;17937;51.508;7.534;2022-11-20T08:46:16;8.80;99.90
31311;DHT22;17937;51.508;7.534;2022-11-20T08:48:43;8.90;99.90
31311;DHT22;17937;51.508;7.534;2022-11-20T08:51:09;9.20;99.90
31311;DHT22;17937;51.508;7.534;2022-11-20T08:53:34;9.90;99.90
31311;DHT22;17937;51.508;7.534;2022-11-20T08:56:00;10.70;99.90
31311;DHT22;17937;51.508;7.534;2022-11-20T08:58:26;10.90;99.90
31311;DHT22;17937;51.508;7.534;2022-11-20T09:00:52;11.10;99.90
31311;DHT22;17937;51.508;7.534;2022-11-20T09:03:17;11.20;99.90
31311;DHT22;17937;51.508;7.534;2022-11-20T09:05:43;11.00;99.90
31311;DHT22;17937;51.508;7.534;2022-11-20T09:08:08;10.20;99.90
31311;DHT22;17937;51.508;7.534;2022-11-20T09:10:34;10.10;99.90
31311;DHT22;17937;51.508;7.534;2022-11-20T09:13:00;10.30;99.90
31311;DHT22;17937;51.508;7.534;2022-11-20T09:15:26;9.60;99.90
31311;DHT22;17937;51.508;7.534;2022-11-20T09:17:54;8.90;99.90
31311;DHT22;17937;51.508;7.534;2022-11-20T09:20:20;7.80;99.90
31311;DHT22;17937;51.508;7.534;2022-11-20T09:22:45;7.40;99.90
31311;DHT22;17937;51.508;7.534;2022-11-20T09:25:11;7.20;99.90
31311;DHT22;17937;51.508;7.534;2022-11-20T09:27:36;7.60;99.90
31311;DHT22;17937;51.508;7.534;2022-11-20T09:30:03;8.20;99.90
31311;DHT22;17937;51.508;7.534;2022-11-20T09:32:28;8.70;99.90
31311;DHT22;17937;51.508;7.534;2022-11-20T09:34:54;9.10;99.90
31311;DHT22;17937;51.508;7.534;2022-11-20T09:37:19;9.40;99.90
31311;DHT22;17937;51.508;7.534;2022-11-20T09:39:45;9.60;99.90
31311;DHT22;17937;51.508;7.534;2022-11-20T09:50:15;10.20;99.90
31311;DHT22;17937;51.508;7.534;2022-11-20T09:55:25;9.80;99.90
31311;DHT22;17937;51.508;7.534;2022-11-20T09:57:52;9.30;99.90
31311;DHT22;17937;51.508;7.534;2022-11-20T10:00:18;8.90;99.90
31311;DHT22;17937;51.508;7.534;2022-11-20T10:02:55;8.80;99.90
31311;DHT22;17937;51.508;7.534;2022-11-20T10:05:31;9.00;99.90
31311;DHT22;17937;51.508;7.534;2022-11-20T10:10:46;8.50;99.90
31311;DHT22;17937;51.508;7.534;2022-11-20T10:13:47;8.10;99.90
31311;DHT22;17937;51.508;7.534;2022-11-20T10:21:55;8.10;99.90
31311;DHT22;17937;51.508;7.534;2022-11-20T10:24:34;8.10;99.90
31311;DHT22;17937;51.508;7.534;2022-11-20T10:30:11;8.00;99.90
31311;DHT22;17937;51.508;7.534;2022-11-20T10:32:47;8.20;99.90
31311;DHT22;17937;51.508;7.534;2022-11-20T10:37:44;8.10;99.90
31311;DHT22;17937;51.508;7.534;2022-11-20T10:42:54;7.80;99.90
31311;DHT22;17937;51.508;7.534;2022-11-20T10:47:54;7.30;99.90
31311;DHT22;17937;51.508;7.534;2022-11-20T10:50:21;7.10;99.90
31311;DHT22;17937;51.508;7.534;2022-11-20T10:53:31;7.00;99.90
31311;DHT22;17937;51.508;7.534;2022-11-20T10:56:07;7.00;99.90
31311;DHT22;17937;51.508;7.534;2022-11-20T11:01:22;6.50;99.90
31311;DHT22;17937;51.508;7.534;2022-11-20T11:03:49;6.40;99.90
31311;DHT22;17937;51.508;7.534;2022-11-20T11:06:37;6.20;99.90
31311;DHT22;17937;51.508;7.534;2022-11-20T11:09:13;5.90;99.90
31311;DHT22;17937;51.508;7.534;2022-11-20T11:11:41;5.80;99.90
31311;DHT22;17937;51.508;7.534;2022-11-20T11:14:11;5.90;99.90
31311;DHT22;17937;51.508;7.534;2022-11-20T11:16:50;6.10;99.90
31311;DHT22;17937;51.508;7.534;2022-11-20T11:19:16;6.10;99.90
31311;DHT22;17937;51.508;7.534;2022-11-20T11:21:47;6.10;99.90
31311;DHT22;17937;51.508;7.534;2022-11-20T11:24:21;6.10;99.90
31311;DHT22;17937;51.508;7.534;2022-11-20T11:26:57;5.90;99.90
31311;DHT22;17937;51.508;7.534;2022-11-20T11:29:23;5.70;99.90
31311;DHT22;17937;51.508;7.534;2022-11-20T11:32:06;5.60;99.90
31311;DHT22;17937;51.508;7.534;2022-11-20T11:34:32;5.50;99.90
31311;DHT22;17937;51.508;7.534;2022-11-20T11:36:59;5.50;99.90
31311;DHT22;17937;51.508;7.534;2022-11-20T11:39:27;5.40;99.90
31311;DHT22;17937;51.508;7.534;2022-11-20T11:41:54;5.40;99.90
31311;DHT22;17937;51.508;7.534;2022-11-20T11:44:32;5.40;99.90
31311;DHT22;17937;51.508;7.534;2022-11-20T11:47:30;5.40;99.90
31311;DHT22;17937;51.508;7.534;2022-11-20T11:50:08;5.30;99.90
31311;DHT22;17937;51.508;7.534;2022-11-20T11:58:08;5.40;99.90
31311;DHT22;17937;51.508;7.534;2022-11-20T12:00:36;5.50;99.90
31311;DHT22;17937;51.508;7.534;2022-11-20T12:03:24;5.50;99.90
31311;DHT22;17937;51.508;7.534;2022-11-20T12:05:57;5.40;99.90
31311;DHT22;17937;51.508;7.534;2022-11-20T12:11:19;5.30;99.90
31311;DHT22;17937;51.508;7.534;2022-11-20T12:13:50;5.30;99.90
31311;DHT22;17937;51.508;7.534;2022-11-20T12:16:19;5.30;99.90
31311;DHT22;17937;51.508;7.534;2022-11-20T12:18:49;5.20;99.90
31311;DHT22;17937;51.508;7.534;2022-11-20T12:21:31;5.10;99.90
31311;DHT22;17937;51.508;7.534;2022-11-20T12:24:27;5.20;99.90
31311;DHT22;17937;51.508;7.534;2022-11-20T12:30:16;5.40;99.90
31311;DHT22;17937;51.508;7.534;2022-11-20T12:35:32;5.60;99.90
31311;DHT22;17937;51.508;7.534;2022-11-20T12:43:30;5.60;99.90
31311;DHT22;17937;51.508;7.534;2022-11-20T12:46:45;5.60;99.90
31311;DHT22;17937;51.508;7.534;2022-11-20T12:49:35;5.60;99.90
31311;DHT22;17937;51.508;7.534;2022-11-20T12:52:28;5.60;99.90
31311;DHT22;17937;51.508;7.534;2022-11-20T12:55:20;5.60;99.90
31311;DHT22;17937;51.508;7.534;2022-11-20T12:57:50;5.70;99.90
31311;DHT22;17937;51.508;7.534;2022-11-20T13:00:21;5.50;99.90
31311;DHT22;17937;51.508;7.534;2022-11-20T13:08:27;5.30;99.90
31311;DHT22;17937;51.508;7.534;2022-11-20T13:11:14;5.30;99.90
31311;DHT22;17937;51.508;7.534;2022-11-20T13:19:13;5.10;99.90
31311;DHT22;17937;51.508;7.534;2022-11-20T13:21:41;5.00;99.90
31311;DHT22;17937;51.508;7.534;2022-11-20T13:26:46;4.90;99.90
31311;DHT22;17937;51.508;7.534;2022-11-20T13:29:17;4.80;99.90
31311;DHT22;17937;51.508;7.534;2022-11-20T13:31:44;4.70;99.90
31311;DHT22;17937;51.508;7.534;2022-11-20T13:34:14;4.80;99.90
31311;DHT22;17937;51.508;7.534;2022-11-20T13:36:52;4.80;99.90
31311;DHT22;17937;51.508;7.534;2022-11-20T13:39:30;4.70;99.90
31311;DHT22;17937;51.508;7.534;2022-11-20T13:44:44;4.70;99.90
31311;DHT22;17937;51.508;7.534;2022-11-20T13:47:24;4.80;99.90
31311;DHT22;17937;51.508;7.534;2022-11-20T13:49:51;4.60;99.90
31311;DHT22;17937;51.508;7.534;2022-11-20T13:55:43;4.60;99.90
31311;DHT22;17937;51.508;7.534;2022-11-20T14:00:51;4.60;99.90
31311;DHT22;17937;51.508;7.534;2022-11-20T14:03:21;4.60;99.90
31311;DHT22;17937;51.508;7.534;2022-11-20T14:06:32;4.70;99.90
31311;DHT22;17937;51.508;7.534;2022-11-20T14:08:57;4.70;99.90
31311;DHT22;17937;51.508;7.534;2022-11-20T14:11:26;4.60;99.90
31311;DHT22;17937;51.508;7.534;2022-11-20T14:16:31;4.60;99.90
31311;DHT22;17937;51.508;7.534;2022-11-20T14:19:08;4.60;99.90
31311;DHT22;17937;51.508;7.534;2022-11-20T14:21:42;4.50;99.90
31311;DHT22;17937;51.508;7.534;2022-11-20T14:24:11;4.60;99.90
31311;DHT22;17937;51.508;7.534;2022-11-20T14:26:38;4.60;99.90
31311;DHT22;17937;51.508;7.534;2022-11-20T14:29:15;4.60;99.90
31311;DHT22;17937;51.508;7.534;2022-11-20T14:31:42;4.50;99.90
31311;DHT22;17937;51.508;7.534;2022-11-20T14:34:18;4.50;99.90
31311;DHT22;17937;51.508;7.534;2022-11-20T14:36:44;4.50;99.90
31311;DHT22;17937;51.508;7.534;2022-11-20T14:39:25;4.50;99.90
31311;DHT22;17937;51.508;7.534;2022-11-20T14:41:52;4.50;99.90
31311;DHT22;17937;51.508;7.534;2022-11-20T14:44:23;4.50;99.90
31311;DHT22;17937;51.508;7.534;2022-11-20T14:46:50;4.50;99.90
31311;DHT22;17937;51.508;7.534;2022-11-20T14:49:16;4.50;99.90
31311;DHT22;17937;51.508;7.534;2022-11-20T14:51:42;4.40;99.90
31311;DHT22;17937;51.508;7.534;2022-11-20T14:54:09;4.40;99.90
31311;DHT22;17937;51.508;7.534;2022-11-20T14:56:35;4.40;99.90
31311;DHT22;17937;51.508;7.534;2022-11-20T14:59:01;4.40;99.90
31311;DHT22;17937;51.508;7.534;2022-11-20T15:01:31;4.40;99.90
31311;DHT22;17937;51.508;7.534;2022-11-20T15:04:06;4.40;99.90
31311;DHT22;17937;51.508;7.534;2022-11-20T15:06:33;4.30;99.90
31311;DHT22;17937;51.508;7.534;2022-11-20T15:08:58;4.30;99.90
31311;DHT22;17937;51.508;7.534;2022-11-20T15:11:30;4.40;99.90
31311;DHT22;17937;51.508;7.534;2022-11-20T15:13:56;4.30;99.90
31311;DHT22;17937;51.508;7.534;2022-11-20T15:16:23;4.30;99.90
31311;DHT22;17937;51.508;7.534;2022-11-20T15:18:50;4.30;99.90
31311;DHT22;17937;51.508;7.534;2022-11-20T15:21:18;4.30;99.90
31311;DHT22;17937;51.508;7.534;2022-11-20T15:23:43;4.30;99.90
31311;DHT22;17937;51.508;7.534;2022-11-20T15:26:11;4.30;99.90
31311;DHT22;17937;51.508;7.534;2022-11-20T15:28:42;4.30;99.90
31311;DHT22;17937;51.508;7.534;2022-11-20T15:31:19;4.30;99.90
31311;DHT22;17937;51.508;7.534;2022-11-20T15:33:45;4.20;99.90
31311;DHT22;17937;51.508;7.534;2022-11-20T15:36:11;4.20;99.90
31311;DHT22;17937;51.508;7.534;2022-11-20T15:38:37;4.10;99.90
31311;DHT22;17937;51.508;7.534;2022-11-20T15:41:02;4.10;99.90
31311;DHT22;17937;51.508;7.534;2022-11-20T15:43:28;4.10;99.90
31311;DHT22;17937;51.508;7.534;2022-11-20T15:45:56;4.10;99.90
31311;DHT22;17937;51.508;7.534;2022-11-20T15:48:27;4.10;99.90
31311;DHT22;17937;51.508;7.534;2022-11-20T15:51:02;4.00;99.90
31311;DHT22;17937;51.508;7.534;2022-11-20T15:53:29;4.00;99.90
31311;DHT22;17937;51.508;7.534;2022-11-20T15:55:55;4.00;99.90
31311;DHT22;17937;51.508;7.534;2022-11-20T15:58:20;4.00;99.90
31311;DHT22;17937;51.508;7.534;2022-11-20T16:00:48;4.00;99.90
31311;DHT22;17937;51.508;7.534;2022-11-20T16:03:14;4.00;99.90
31311;DHT22;17937;51.508;7.534;2022-11-20T16:05:40;4.00;99.90
31311;DHT22;17937;51.508;7.534;2022-11-20T16:08:06;4.00;99.90
31311;DHT22;17937;51.508;7.534;2022-11-20T16:10:32;3.90;99.90
31311;DHT22;17937;51.508;7.534;2022-11-20T16:12:57;3.90;99.90
31311;DHT22;17937;51.508;7.534;2022-11-20T16:15:41;3.90;99.90
31311;DHT22;17937;51.508;7.534;2022-11-20T16:18:11;3.90;99.90
31311;DHT22;17937;51.508;7.534;2022-11-20T16:20:38;4.00;99.90
31311;DHT22;17937;51.508;7.534;2022-11-20T16:23:04;3.90;99.90
31311;DHT22;17937;51.508;7.534;2022-11-20T16:25:29;3.90;99.90
31311;DHT22;17937;51.508;7.534;2022-11-20T16:27:55;3.90;99.90
31311;DHT22;17937;51.508;7.534;2022-11-20T16:30:20;3.90;99.90
31311;DHT22;17937;51.508;7.534;2022-11-20T16:32:46;3.80;99.90
31311;DHT22;17937;51.508;7.534;2022-11-20T16:35:11;3.80;99.90
31311;DHT22;17937;51.508;7.534;2022-11-20T16:37:37;3.80;99.90
31311;DHT22;17937;51.508;7.534;2022-11-20T16:40:04;3.90;99.90
31311;DHT22;17937;51.508;7.534;2022-11-20T16:42:33;3.90;99.90
31311;DHT22;17937;51.508;7.534;2022-11-20T16:44:59;3.90;99.90
31311;DHT22;17937;51.508;7.534;2022-11-20T16:47:24;3.90;99.90
31311;DHT22;17937;51.508;7.534;2022-11-20T16:49:50;4.00;99.90
31311;DHT22;17937;51.508;7.534;2022-11-20T16:52:15;4.00;99.90
31311;DHT22;17937;51.508;7.534;2022-11-20T16:54:41;4.00;99.90
31311;DHT22;17937;51.508;7.534;2022-11-20T16:57:06;4.00;99.90
31311;DHT22;17937;51.508;7.534;2022-11-20T16:59:32;4.00;99.90
31311;DHT22;17937;51.508;7.534;2022-11-20T17:01:58;4.00;99.90
31311;DHT22;17937;51.508;7.534;2022-11-20T17:04:24;4.00;99.90
31311;DHT22;17937;51.508;7.534;2022-11-20T17:06:50;4.00;99.90
31311;DHT22;17937;51.508;7.534;2022-11-20T17:09:15;4.00;99.90
31311;DHT22;17937;51.508;7.534;2022-11-20T17:11:41;4.00;99.90
31311;DHT22;17937;51.508;7.534;2022-11-20T17:14:07;4.00;99.90